sensor_id;sensor_type;location;lat;lon;timestamp;P1;durP1;ratioP1;P2;durP2;ratioP2
72053;SDS011;59918;51.280;7.950;2023-02-01T00:00:27;19.58;;;7.03;;
72053;SDS011;59918;51.280;7.950;2023-02-01T00:02:52;21.50;;;7.47;;
72053;SDS011;59918;51.280;7.950;2023-02-01T00:05:17;24.67;;;8.45;;
72053;SDS011;59918;51.280;7.950;2023-02-01T00:07:49;22.25;;;8.10;;
72053;SDS011;59918;51.280;7.950;2023-02-01T00:10:14;27.23;;;7.75;;
72053;SDS011;59918;51.280;7.950;2023-02-01T00:12:40;28.23;;;10.35;;
72053;SDS011;59918;51.280;7.950;2023-02-01T00:15:05;20.30;;;9.50;;
72053;SDS011;59918;51.280;7.950;2023-02-01T00:17:36;27.33;;;10.33;;
72053;SDS011;59918;51.280;7.950;2023-02-01T00:20:02;28.90;;;9.82;;
72053;SDS011;59918;51.280;7.950;2023-02-01T00:22:27;29.25;;;11.35;;
72053;SDS011;59918;51.280;7.950;2023-02-01T00:24:53;27.13;;;11.45;;
72053;SDS011;59918;51.280;7.950;2023-02-01T00:27:24;27.75;;;10.50;;
72053;SDS011;59918;51.280;7.950;2023-02-01T00:29:49;26.25;;;12.50;;
72053;SDS011;59918;51.280;7.950;2023-02-01T00:32:14;29.58;;;11.40;;
72053;SDS011;59918;51.280;7.950;2023-02-01T00:34:40;31.08;;;11.35;;
72053;SDS011;59918;51.280;7.950;2023-02-01T00:37:05;25.45;;;10.40;;
72053;SDS011;59918;51.280;7.950;2023-02-01T00:39:33;29.58;;;12.32;;
72053;SDS011;59918;51.280;7.950;2023-02-01T00:41:59;26.80;;;10.48;;
72053;SDS011;59918;51.280;7.950;2023-02-01T00:44:25;31.20;;;11.35;;
72053;SDS011;59918;51.280;7.950;2023-02-01T00:46:50;31.65;;;10.65;;
72053;SDS011;59918;51.280;7.950;2023-02-01T00:49:15;25.23;;;9.95;;
72053;SDS011;59918;51.280;7.950;2023-02-01T00:51:41;24.63;;;10.38;;
72053;SDS011;59918;51.280;7.950;2023-02-01T00:54:12;26.67;;;10.00;;
72053;SDS011;59918;51.280;7.950;2023-02-01T00:56:37;27.98;;;9.00;;
72053;SDS011;59918;51.280;7.950;2023-02-01T00:59:02;16.13;;;6.70;;
72053;SDS011;59918;51.280;7.950;2023-02-01T01:01:28;22.48;;;6.15;;
72053;SDS011;59918;51.280;7.950;2023-02-01T01:03:54;22.08;;;6.43;;
72053;SDS011;59918;51.280;7.950;2023-02-01T01:06:27;16.05;;;5.05;;
72053;SDS011;59918;51.280;7.950;2023-02-01T01:08:56;19.73;;;5.35;;
72053;SDS011;59918;51.280;7.950;2023-02-01T01:11:27;19.25;;;5.07;;
72053;SDS011;59918;51.280;7.950;2023-02-01T01:13:59;16.38;;;4.85;;
72053;SDS011;59918;51.280;7.950;2023-02-01T01:16:25;15.95;;;5.05;;
72053;SDS011;59918;51.280;7.950;2023-02-01T01:18:52;13.85;;;5.05;;
72053;SDS011;59918;51.280;7.950;2023-02-01T01:21:17;25.15;;;5.90;;
72053;SDS011;59918;51.280;7.950;2023-02-01T01:23:47;15.10;;;4.60;;
72053;SDS011;59918;51.280;7.950;2023-02-01T01:26:14;19.85;;;3.97;;
72053;SDS011;59918;51.280;7.950;2023-02-01T01:28:47;16.02;;;4.22;;
72053;SDS011;59918;51.280;7.950;2023-02-01T01:31:13;18.48;;;4.72;;
72053;SDS011;59918;51.280;7.950;2023-02-01T01:33:40;15.68;;;4.00;;
72053;SDS011;59918;51.280;7.950;2023-02-01T01:36:06;13.52;;;3.63;;
72053;SDS011;59918;51.280;7.950;2023-02-01T01:38:36;14.77;;;4.32;;
72053;SDS011;59918;51.280;7.950;2023-02-01T01:41:02;19.40;;;5.65;;
72053;SDS011;59918;51.280;7.950;2023-02-01T01:43:44;13.10;;;3.80;;
72053;SDS011;59918;51.280;7.950;2023-02-01T01:46:17;13.95;;;3.97;;
72053;SDS011;59918;51.280;7.950;2023-02-01T01:49:07;18.00;;;3.75;;
72053;SDS011;59918;51.280;7.950;2023-02-01T01:51:43;22.50;;;4.22;;
72053;SDS011;59918;51.280;7.950;2023-02-01T01:54:17;21.02;;;4.10;;
72053;SDS011;59918;51.280;7.950;2023-02-01T01:57:04;18.35;;;4.03;;
72053;SDS011;59918;51.280;7.950;2023-02-01T01:59:37;14.43;;;4.13;;
72053;SDS011;59918;51.280;7.950;2023-02-01T02:02:04;13.85;;;3.78;;
72053;SDS011;59918;51.280;7.950;2023-02-01T02:04:31;13.05;;;4.07;;
72053;SDS011;59918;51.280;7.950;2023-02-01T02:07:08;20.45;;;4.45;;
72053;SDS011;59918;51.280;7.950;2023-02-01T02:09:40;20.42;;;4.40;;
72053;SDS011;59918;51.280;7.950;2023-02-01T02:12:06;17.17;;;3.80;;
72053;SDS011;59918;51.280;7.950;2023-02-01T02:14:31;16.33;;;5.15;;
72053;SDS011;59918;51.280;7.950;2023-02-01T02:33:53;22.33;;;5.25;;
72053;SDS011;59918;51.280;7.950;2023-02-01T02:47:29;21.40;;;5.70;;
72053;SDS011;59918;51.280;7.950;2023-02-01T02:52:51;25.48;;;5.63;;
72053;SDS011;59918;51.280;7.950;2023-02-01T02:55:25;19.60;;;5.40;;
72053;SDS011;59918;51.280;7.950;2023-02-01T02:57:53;26.97;;;5.37;;
72053;SDS011;59918;51.280;7.950;2023-02-01T03:00:27;15.07;;;3.75;;
72053;SDS011;59918;51.280;7.950;2023-02-01T03:02:53;18.77;;;4.97;;
72053;SDS011;59918;51.280;7.950;2023-02-01T03:05:19;16.90;;;4.93;;
72053;SDS011;59918;51.280;7.950;2023-02-01T03:19:02;20.38;;;4.53;;
72053;SDS011;59918;51.280;7.950;2023-02-01T03:24:14;14.32;;;3.63;;
72053;SDS011;59918;51.280;7.950;2023-02-01T03:26:52;21.30;;;4.38;;
72053;SDS011;59918;51.280;7.950;2023-02-01T03:29:25;21.27;;;4.43;;
72053;SDS011;59918;51.280;7.950;2023-02-01T03:31:55;10.82;;;3.03;;
72053;SDS011;59918;51.280;7.950;2023-02-01T03:34:26;14.70;;;3.38;;
72053;SDS011;59918;51.280;7.950;2023-02-01T03:36:54;16.23;;;2.95;;
72053;SDS011;59918;51.280;7.950;2023-02-01T03:42:02;20.83;;;3.70;;
72053;SDS011;59918;51.280;7.950;2023-02-01T03:47:20;12.95;;;3.35;;
72053;SDS011;59918;51.280;7.950;2023-02-01T03:49:52;11.40;;;2.67;;
72053;SDS011;59918;51.280;7.950;2023-02-01T03:52:26;17.77;;;3.42;;
72053;SDS011;59918;51.280;7.950;2023-02-01T03:54:55;16.30;;;3.03;;
72053;SDS011;59918;51.280;7.950;2023-02-01T03:57:26;19.10;;;3.95;;
72053;SDS011;59918;51.280;7.950;2023-02-01T03:59:54;12.95;;;2.92;;
72053;SDS011;59918;51.280;7.950;2023-02-01T04:02:29;11.23;;;3.08;;
72053;SDS011;59918;51.280;7.950;2023-02-01T04:04:54;6.65;;;2.20;;
72053;SDS011;59918;51.280;7.950;2023-02-01T04:07:20;10.65;;;2.97;;
72053;SDS011;59918;51.280;7.950;2023-02-01T04:09:48;20.20;;;3.42;;
72053;SDS011;59918;51.280;7.950;2023-02-01T04:12:13;13.70;;;2.28;;
72053;SDS011;59918;51.280;7.950;2023-02-01T04:14:38;12.02;;;2.60;;
72053;SDS011;59918;51.280;7.950;2023-02-01T04:17:03;14.65;;;2.90;;
72053;SDS011;59918;51.280;7.950;2023-02-01T04:19:31;20.23;;;3.30;;
72053;SDS011;59918;51.280;7.950;2023-02-01T04:21:56;15.68;;;3.88;;
72053;SDS011;59918;51.280;7.950;2023-02-01T04:24:24;15.07;;;2.22;;
72053;SDS011;59918;51.280;7.950;2023-02-01T04:26:49;14.48;;;2.42;;
72053;SDS011;59918;51.280;7.950;2023-02-01T04:29:15;12.80;;;2.17;;
72053;SDS011;59918;51.280;7.950;2023-02-01T04:31:40;13.38;;;2.67;;
72053;SDS011;59918;51.280;7.950;2023-02-01T04:34:05;9.43;;;2.63;;
72053;SDS011;59918;51.280;7.950;2023-02-01T04:36:30;15.05;;;2.80;;
72053;SDS011;59918;51.280;7.950;2023-02-01T04:38:56;16.85;;;3.13;;
72053;SDS011;59918;51.280;7.950;2023-02-01T04:41:21;20.15;;;2.70;;
72053;SDS011;59918;51.280;7.950;2023-02-01T04:43:49;16.02;;;3.63;;
72053;SDS011;59918;51.280;7.950;2023-02-01T04:46:15;15.63;;;4.03;;
72053;SDS011;59918;51.280;7.950;2023-02-01T04:48:41;17.02;;;2.65;;
72053;SDS011;59918;51.280;7.950;2023-02-01T04:51:07;21.77;;;3.08;;
72053;SDS011;59918;51.280;7.950;2023-02-01T04:53:32;15.57;;;2.60;;
72053;SDS011;59918;51.280;7.950;2023-02-01T04:56:03;17.75;;;2.65;;
72053;SDS011;59918;51.280;7.950;2023-02-01T04:58:29;13.38;;;2.13;;
72053;SDS011;59918;51.280;7.950;2023-02-01T05:00:54;15.43;;;3.13;;
72053;SDS011;59918;51.280;7.950;2023-02-01T05:03:19;16.58;;;3.13;;
72053;SDS011;59918;51.280;7.950;2023-02-01T05:05:46;17.48;;;3.28;;
72053;SDS011;59918;51.280;7.950;2023-02-01T05:08:15;14.07;;;2.88;;
72053;SDS011;59918;51.280;7.950;2023-02-01T05:10:40;15.77;;;3.00;;
72053;SDS011;59918;51.280;7.950;2023-02-01T05:13:05;15.43;;;2.50;;
72053;SDS011;59918;51.280;7.950;2023-02-01T05:15:32;16.70;;;2.60;;
72053;SDS011;59918;51.280;7.950;2023-02-01T05:18:03;14.23;;;2.78;;
72053;SDS011;59918;51.280;7.950;2023-02-01T05:20:28;14.98;;;3.05;;
72053;SDS011;59918;51.280;7.950;2023-02-01T05:22:56;9.98;;;3.22;;
72053;SDS011;59918;51.280;7.950;2023-02-01T05:25:21;17.90;;;3.28;;
72053;SDS011;59918;51.280;7.950;2023-02-01T05:27:49;19.00;;;3.35;;
72053;SDS011;59918;51.280;7.950;2023-02-01T05:30:15;22.50;;;4.07;;
72053;SDS011;59918;51.280;7.950;2023-02-01T05:32:43;17.63;;;3.20;;
72053;SDS011;59918;51.280;7.950;2023-02-01T05:35:08;19.15;;;3.90;;
72053;SDS011;59918;51.280;7.950;2023-02-01T05:37:39;19.27;;;4.28;;
72053;SDS011;59918;51.280;7.950;2023-02-01T05:40:05;13.53;;;4.30;;
72053;SDS011;59918;51.280;7.950;2023-02-01T05:42:30;16.75;;;4.03;;
72053;SDS011;59918;51.280;7.950;2023-02-01T05:44:55;12.50;;;3.70;;
72053;SDS011;59918;51.280;7.950;2023-02-01T05:47:21;7.13;;;2.92;;
72053;SDS011;59918;51.280;7.950;2023-02-01T05:49:52;23.58;;;4.13;;
72053;SDS011;59918;51.280;7.950;2023-02-01T05:52:17;13.70;;;4.40;;
72053;SDS011;59918;51.280;7.950;2023-02-01T05:54:42;17.70;;;4.38;;
72053;SDS011;59918;51.280;7.950;2023-02-01T05:57:07;21.98;;;5.30;;
72053;SDS011;59918;51.280;7.950;2023-02-01T05:59:32;19.13;;;4.22;;
72053;SDS011;59918;51.280;7.950;2023-02-01T06:02:01;23.88;;;4.90;;
72053;SDS011;59918;51.280;7.950;2023-02-01T06:04:26;21.25;;;4.22;;
72053;SDS011;59918;51.280;7.950;2023-02-01T06:06:51;24.67;;;4.75;;
72053;SDS011;59918;51.280;7.950;2023-02-01T06:09:16;17.83;;;4.75;;
72053;SDS011;59918;51.280;7.950;2023-02-01T06:11:42;15.70;;;5.25;;
72053;SDS011;59918;51.280;7.950;2023-02-01T06:14:07;17.23;;;5.28;;
72053;SDS011;59918;51.280;7.950;2023-02-01T06:16:32;13.93;;;5.05;;
72053;SDS011;59918;51.280;7.950;2023-02-01T06:19:01;18.45;;;4.60;;
72053;SDS011;59918;51.280;7.950;2023-02-01T06:21:26;11.05;;;4.57;;
72053;SDS011;59918;51.280;7.950;2023-02-01T06:23:51;14.82;;;4.53;;
72053;SDS011;59918;51.280;7.950;2023-02-01T06:26:18;21.98;;;5.13;;
72053;SDS011;59918;51.280;7.950;2023-02-01T06:28:43;23.33;;;5.82;;
72053;SDS011;59918;51.280;7.950;2023-02-01T06:31:09;10.57;;;4.35;;
72053;SDS011;59918;51.280;7.950;2023-02-01T06:33:37;22.67;;;6.32;;
72053;SDS011;59918;51.280;7.950;2023-02-01T06:36:04;17.27;;;4.57;;
72053;SDS011;59918;51.280;7.950;2023-02-01T06:38:31;16.75;;;5.18;;
72053;SDS011;59918;51.280;7.950;2023-02-01T06:40:57;17.17;;;4.95;;
72053;SDS011;59918;51.280;7.950;2023-02-01T06:43:25;23.00;;;5.50;;
72053;SDS011;59918;51.280;7.950;2023-02-01T06:45:52;14.35;;;4.50;;
72053;SDS011;59918;51.280;7.950;2023-02-01T06:48:18;17.67;;;5.07;;
72053;SDS011;59918;51.280;7.950;2023-02-01T06:50:43;21.83;;;5.68;;
72053;SDS011;59918;51.280;7.950;2023-02-01T06:53:09;19.95;;;4.47;;
72053;SDS011;59918;51.280;7.950;2023-02-01T06:55:37;22.95;;;5.38;;
72053;SDS011;59918;51.280;7.950;2023-02-01T06:58:03;18.42;;;5.38;;
72053;SDS011;59918;51.280;7.950;2023-02-01T07:00:28;17.38;;;5.28;;
72053;SDS011;59918;51.280;7.950;2023-02-01T07:02:54;14.32;;;4.65;;
72053;SDS011;59918;51.280;7.950;2023-02-01T07:05:20;30.65;;;5.18;;
72053;SDS011;59918;51.280;7.950;2023-02-01T07:07:45;16.73;;;4.47;;
72053;SDS011;59918;51.280;7.950;2023-02-01T07:10:10;15.30;;;4.65;;
72053;SDS011;59918;51.280;7.950;2023-02-01T07:12:39;17.60;;;5.05;;
72053;SDS011;59918;51.280;7.950;2023-02-01T07:15:04;17.88;;;4.88;;
72053;SDS011;59918;51.280;7.950;2023-02-01T07:17:31;21.02;;;5.30;;
72053;SDS011;59918;51.280;7.950;2023-02-01T07:19:56;18.35;;;4.85;;
72053;SDS011;59918;51.280;7.950;2023-02-01T07:22:21;15.65;;;4.35;;
72053;SDS011;59918;51.280;7.950;2023-02-01T07:24:54;17.10;;;4.55;;
72053;SDS011;59918;51.280;7.950;2023-02-01T07:27:19;14.75;;;4.10;;
72053;SDS011;59918;51.280;7.950;2023-02-01T07:29:44;20.13;;;4.82;;
72053;SDS011;59918;51.280;7.950;2023-02-01T07:32:10;13.98;;;4.47;;
72053;SDS011;59918;51.280;7.950;2023-02-01T07:34:41;19.80;;;5.32;;
72053;SDS011;59918;51.280;7.950;2023-02-01T07:37:06;12.57;;;4.53;;
72053;SDS011;59918;51.280;7.950;2023-02-01T07:39:31;10.25;;;3.58;;
72053;SDS011;59918;51.280;7.950;2023-02-01T07:41:56;14.15;;;4.82;;
72053;SDS011;59918;51.280;7.950;2023-02-01T07:44:22;14.50;;;4.00;;
72053;SDS011;59918;51.280;7.950;2023-02-01T07:46:50;13.88;;;4.80;;
72053;SDS011;59918;51.280;7.950;2023-02-01T07:49:16;16.00;;;4.25;;
72053;SDS011;59918;51.280;7.950;2023-02-01T07:51:41;16.75;;;4.25;;
72053;SDS011;59918;51.280;7.950;2023-02-01T07:54:06;18.45;;;4.35;;
72053;SDS011;59918;51.280;7.950;2023-02-01T07:56:31;13.50;;;4.75;;
72053;SDS011;59918;51.280;7.950;2023-02-01T07:58:57;20.70;;;4.88;;
72053;SDS011;59918;51.280;7.950;2023-02-01T08:01:23;21.95;;;4.82;;
72053;SDS011;59918;51.280;7.950;2023-02-01T08:03:59;14.18;;;5.75;;
72053;SDS011;59918;51.280;7.950;2023-02-01T08:06:29;18.60;;;4.82;;
72053;SDS011;59918;51.280;7.950;2023-02-01T08:08:56;20.23;;;5.60;;
72053;SDS011;59918;51.280;7.950;2023-02-01T08:11:22;13.48;;;4.50;;
72053;SDS011;59918;51.280;7.950;2023-02-01T08:13:51;16.52;;;4.78;;
72053;SDS011;59918;51.280;7.950;2023-02-01T08:16:17;15.98;;;5.03;;
72053;SDS011;59918;51.280;7.950;2023-02-01T08:18:44;20.25;;;5.75;;
72053;SDS011;59918;51.280;7.950;2023-02-01T08:21:11;18.98;;;5.03;;
72053;SDS011;59918;51.280;7.950;2023-02-01T08:23:42;19.42;;;5.55;;
72053;SDS011;59918;51.280;7.950;2023-02-01T08:26:09;19.98;;;5.15;;
72053;SDS011;59918;51.280;7.950;2023-02-01T08:28:45;20.08;;;5.30;;
72053;SDS011;59918;51.280;7.950;2023-02-01T08:31:19;16.98;;;5.60;;
72053;SDS011;59918;51.280;7.950;2023-02-01T08:33:48;18.50;;;5.53;;
72053;SDS011;59918;51.280;7.950;2023-02-01T08:36:21;24.88;;;5.35;;
72053;SDS011;59918;51.280;7.950;2023-02-01T08:38:54;26.48;;;5.55;;
72053;SDS011;59918;51.280;7.950;2023-02-01T08:41:21;14.02;;;4.80;;
72053;SDS011;59918;51.280;7.950;2023-02-01T08:43:54;14.82;;;4.13;;
72053;SDS011;59918;51.280;7.950;2023-02-01T08:46:21;18.80;;;5.05;;
72053;SDS011;59918;51.280;7.950;2023-02-01T08:48:47;21.45;;;5.40;;
72053;SDS011;59918;51.280;7.950;2023-02-01T08:51:17;24.17;;;5.53;;
72053;SDS011;59918;51.280;7.950;2023-02-01T08:53:44;17.85;;;5.82;;
72053;SDS011;59918;51.280;7.950;2023-02-01T08:56:11;14.38;;;5.03;;
72053;SDS011;59918;51.280;7.950;2023-02-01T08:58:40;17.70;;;5.70;;
72053;SDS011;59918;51.280;7.950;2023-02-01T09:01:06;22.23;;;5.40;;
72053;SDS011;59918;51.280;7.950;2023-02-01T09:03:33;19.52;;;4.75;;
72053;SDS011;59918;51.280;7.950;2023-02-01T09:06:05;14.40;;;5.85;;
72053;SDS011;59918;51.280;7.950;2023-02-01T09:08:32;19.58;;;5.50;;
72053;SDS011;59918;51.280;7.950;2023-02-01T09:10:58;18.67;;;5.10;;
72053;SDS011;59918;51.280;7.950;2023-02-01T09:13:27;19.38;;;5.15;;
72053;SDS011;59918;51.280;7.950;2023-02-01T09:15:53;12.95;;;5.22;;
72053;SDS011;59918;51.280;7.950;2023-02-01T09:18:18;20.30;;;4.68;;
72053;SDS011;59918;51.280;7.950;2023-02-01T09:20:44;16.98;;;4.40;;
72053;SDS011;59918;51.280;7.950;2023-02-01T09:23:09;18.50;;;5.38;;
72053;SDS011;59918;51.280;7.950;2023-02-01T09:25:36;16.63;;;4.28;;
72053;SDS011;59918;51.280;7.950;2023-02-01T09:28:05;20.55;;;5.00;;
72053;SDS011;59918;51.280;7.950;2023-02-01T09:30:33;13.43;;;4.38;;
72053;SDS011;59918;51.280;7.950;2023-02-01T09:32:59;13.90;;;4.63;;
72053;SDS011;59918;51.280;7.950;2023-02-01T09:35:27;10.57;;;4.20;;
72053;SDS011;59918;51.280;7.950;2023-02-01T09:37:53;19.08;;;5.05;;
72053;SDS011;59918;51.280;7.950;2023-02-01T09:40:18;20.02;;;5.30;;
72053;SDS011;59918;51.280;7.950;2023-02-01T09:45:44;13.02;;;4.60;;
72053;SDS011;59918;51.280;7.950;2023-02-01T09:48:19;13.65;;;4.68;;
72053;SDS011;59918;51.280;7.950;2023-02-01T09:50:55;20.38;;;5.07;;
72053;SDS011;59918;51.280;7.950;2023-02-01T09:53:35;12.18;;;4.65;;
72053;SDS011;59918;51.280;7.950;2023-02-01T09:56:07;23.92;;;6.95;;
72053;SDS011;59918;51.280;7.950;2023-02-01T10:01:29;10.45;;;4.68;;
72053;SDS011;59918;51.280;7.950;2023-02-01T10:04:07;19.33;;;5.90;;
72053;SDS011;59918;51.280;7.950;2023-02-01T10:17:23;15.88;;;4.40;;
72053;SDS011;59918;51.280;7.950;2023-02-01T10:23:25;16.65;;;4.75;;
72053;SDS011;59918;51.280;7.950;2023-02-01T10:26:18;8.90;;;3.90;;
72053;SDS011;59918;51.280;7.950;2023-02-01T10:28:49;21.08;;;4.88;;
72053;SDS011;59918;51.280;7.950;2023-02-01T10:31:40;19.33;;;4.75;;
72053;SDS011;59918;51.280;7.950;2023-02-01T10:39:47;17.13;;;3.78;;
72053;SDS011;59918;51.280;7.950;2023-02-01T10:42:17;12.05;;;4.03;;
72053;SDS011;59918;51.280;7.950;2023-02-01T10:44:45;11.00;;;4.13;;
72053;SDS011;59918;51.280;7.950;2023-02-01T10:47:11;18.00;;;4.50;;
72053;SDS011;59918;51.280;7.950;2023-02-01T10:52:19;14.15;;;5.00;;
72053;SDS011;59918;51.280;7.950;2023-02-01T10:54:54;14.60;;;4.07;;
72053;SDS011;59918;51.280;7.950;2023-02-01T10:57:22;21.08;;;4.18;;
72053;SDS011;59918;51.280;7.950;2023-02-01T10:59:52;16.02;;;4.40;;
72053;SDS011;59918;51.280;7.950;2023-02-01T11:02:20;14.65;;;5.32;;
72053;SDS011;59918;51.280;7.950;2023-02-01T11:04:58;20.55;;;4.60;;
72053;SDS011;59918;51.280;7.950;2023-02-01T11:07:28;10.65;;;4.05;;
72053;SDS011;59918;51.280;7.950;2023-02-01T11:09:54;14.77;;;4.05;;
72053;SDS011;59918;51.280;7.950;2023-02-01T11:12:31;11.77;;;3.55;;
72053;SDS011;59918;51.280;7.950;2023-02-01T11:17:47;19.17;;;3.17;;
72053;SDS011;59918;51.280;7.950;2023-02-01T11:20:23;13.02;;;4.28;;
72053;SDS011;59918;51.280;7.950;2023-02-01T11:23:16;16.00;;;4.22;;
72053;SDS011;59918;51.280;7.950;2023-02-01T11:25:54;17.73;;;4.25;;
72053;SDS011;59918;51.280;7.950;2023-02-01T11:28:23;26.40;;;5.07;;
72053;SDS011;59918;51.280;7.950;2023-02-01T11:30:56;12.98;;;4.05;;
72053;SDS011;59918;51.280;7.950;2023-02-01T11:33:25;12.70;;;4.78;;
72053;SDS011;59918;51.280;7.950;2023-02-01T11:35:58;26.55;;;5.18;;
72053;SDS011;59918;51.280;7.950;2023-02-01T11:38:30;16.90;;;4.72;;
72053;SDS011;59918;51.280;7.950;2023-02-01T11:44:15;17.15;;;5.22;;
72053;SDS011;59918;51.280;7.950;2023-02-01T11:46:45;15.57;;;5.20;;
72053;SDS011;59918;51.280;7.950;2023-02-01T11:51:58;16.20;;;4.47;;
72053;SDS011;59918;51.280;7.950;2023-02-01T11:58:26;12.40;;;4.60;;
72053;SDS011;59918;51.280;7.950;2023-02-01T12:22:04;17.35;;;4.00;;
72053;SDS011;59918;51.280;7.950;2023-02-01T12:27:40;15.73;;;4.13;;
72053;SDS011;59918;51.280;7.950;2023-02-01T12:30:28;15.80;;;3.88;;
72053;SDS011;59918;51.280;7.950;2023-02-01T12:44:50;19.85;;;5.32;;
72053;SDS011;59918;51.280;7.950;2023-02-01T12:47:29;27.35;;;6.72;;
72053;SDS011;59918;51.280;7.950;2023-02-01T12:52:49;17.05;;;6.70;;
72053;SDS011;59918;51.280;7.950;2023-02-01T12:55:17;25.02;;;6.70;;
72053;SDS011;59918;51.280;7.950;2023-02-01T13:09:49;18.77;;;7.25;;
72053;SDS011;59918;51.280;7.950;2023-02-01T13:15:13;21.13;;;6.70;;
72053;SDS011;59918;51.280;7.950;2023-02-01T13:17:48;26.00;;;7.65;;
72053;SDS011;59918;51.280;7.950;2023-02-01T13:20:28;17.98;;;6.63;;
72053;SDS011;59918;51.280;7.950;2023-02-01T13:23:04;18.90;;;6.63;;
72053;SDS011;59918;51.280;7.950;2023-02-01T13:28:14;20.35;;;6.93;;
72053;SDS011;59918;51.280;7.950;2023-02-01T13:44:50;20.02;;;5.82;;
72053;SDS011;59918;51.280;7.950;2023-02-01T13:47:22;23.88;;;6.15;;
72053;SDS011;59918;51.280;7.950;2023-02-01T13:49:49;17.05;;;5.93;;
72053;SDS011;59918;51.280;7.950;2023-02-01T13:52:36;14.65;;;5.82;;
72053;SDS011;59918;51.280;7.950;2023-02-01T13:57:49;19.88;;;7.10;;
72053;SDS011;59918;51.280;7.950;2023-02-01T14:13:13;15.73;;;6.25;;
72053;SDS011;59918;51.280;7.950;2023-02-01T14:26:44;20.55;;;7.32;;
72053;SDS011;59918;51.280;7.950;2023-02-01T14:31:42;18.90;;;7.28;;
72053;SDS011;59918;51.280;7.950;2023-02-01T14:37:04;16.52;;;6.25;;
72053;SDS011;59918;51.280;7.950;2023-02-01T14:42:05;21.77;;;6.80;;
72053;SDS011;59918;51.280;7.950;2023-02-01T14:44:44;20.50;;;6.72;;
72053;SDS011;59918;51.280;7.950;2023-02-01T15:14:25;17.60;;;5.90;;
72053;SDS011;59918;51.280;7.950;2023-02-01T15:16:51;16.02;;;5.63;;
72053;SDS011;59918;51.280;7.950;2023-02-01T15:19:17;18.52;;;5.13;;
72053;SDS011;59918;51.280;7.950;2023-02-01T15:21:48;16.50;;;5.65;;
72053;SDS011;59918;51.280;7.950;2023-02-01T15:24:19;17.83;;;6.45;;
72053;SDS011;59918;51.280;7.950;2023-02-01T15:26:52;15.15;;;6.07;;
72053;SDS011;59918;51.280;7.950;2023-02-01T15:29:22;10.27;;;5.13;;
72053;SDS011;59918;51.280;7.950;2023-02-01T15:31:49;22.67;;;6.75;;
72053;SDS011;59918;51.280;7.950;2023-02-01T15:34:16;16.20;;;5.13;;
72053;SDS011;59918;51.280;7.950;2023-02-01T15:36:46;13.48;;;5.50;;
72053;SDS011;59918;51.280;7.950;2023-02-01T15:39:14;18.65;;;5.47;;
72053;SDS011;59918;51.280;7.950;2023-02-01T15:41:46;18.73;;;5.47;;
72053;SDS011;59918;51.280;7.950;2023-02-01T15:44:29;12.90;;;5.77;;
72053;SDS011;59918;51.280;7.950;2023-02-01T15:49:50;19.67;;;5.60;;
72053;SDS011;59918;51.280;7.950;2023-02-01T15:52:26;22.13;;;7.15;;
72053;SDS011;59918;51.280;7.950;2023-02-01T15:55:00;17.02;;;5.97;;
72053;SDS011;59918;51.280;7.950;2023-02-01T15:57:35;18.38;;;5.35;;
72053;SDS011;59918;51.280;7.950;2023-02-01T16:00:04;20.38;;;6.45;;
72053;SDS011;59918;51.280;7.950;2023-02-01T16:02:51;23.48;;;5.25;;
72053;SDS011;59918;51.280;7.950;2023-02-01T16:05:53;25.63;;;6.30;;
72053;SDS011;59918;51.280;7.950;2023-02-01T16:08:14;20.53;;;6.53;;
72053;SDS011;59918;51.280;7.950;2023-02-01T16:10:46;20.48;;;6.35;;
72053;SDS011;59918;51.280;7.950;2023-02-01T16:13:14;26.23;;;6.45;;
72053;SDS011;59918;51.280;7.950;2023-02-01T16:15:40;27.88;;;6.93;;
72053;SDS011;59918;51.280;7.950;2023-02-01T16:18:12;16.77;;;5.78;;
72053;SDS011;59918;51.280;7.950;2023-02-01T16:20:39;23.17;;;6.90;;
72053;SDS011;59918;51.280;7.950;2023-02-01T16:23:05;26.10;;;7.72;;
72053;SDS011;59918;51.280;7.950;2023-02-01T16:25:37;26.88;;;6.85;;
72053;SDS011;59918;51.280;7.950;2023-02-01T16:28:03;19.77;;;6.85;;
72053;SDS011;59918;51.280;7.950;2023-02-01T16:30:28;22.38;;;7.18;;
72053;SDS011;59918;51.280;7.950;2023-02-01T16:33:00;21.35;;;5.80;;
72053;SDS011;59918;51.280;7.950;2023-02-01T16:35:27;19.60;;;5.90;;
72053;SDS011;59918;51.280;7.950;2023-02-01T16:37:57;18.58;;;6.55;;
72053;SDS011;59918;51.280;7.950;2023-02-01T16:40:23;18.10;;;6.20;;
72053;SDS011;59918;51.280;7.950;2023-02-01T16:42:51;21.05;;;6.95;;
72053;SDS011;59918;51.280;7.950;2023-02-01T16:45:21;19.63;;;6.78;;
72053;SDS011;59918;51.280;7.950;2023-02-01T16:47:47;20.95;;;5.82;;
72053;SDS011;59918;51.280;7.950;2023-02-01T16:50:16;17.13;;;6.47;;
72053;SDS011;59918;51.280;7.950;2023-02-01T16:52:46;12.32;;;5.07;;
72053;SDS011;59918;51.280;7.950;2023-02-01T16:55:15;25.38;;;5.75;;
72053;SDS011;59918;51.280;7.950;2023-02-01T16:57:48;23.17;;;6.35;;
72053;SDS011;59918;51.280;7.950;2023-02-01T17:00:13;23.13;;;5.25;;
72053;SDS011;59918;51.280;7.950;2023-02-01T17:02:39;20.27;;;5.80;;
72053;SDS011;59918;51.280;7.950;2023-02-01T17:05:05;27.63;;;7.07;;
72053;SDS011;59918;51.280;7.950;2023-02-01T17:07:34;20.20;;;5.32;;
72053;SDS011;59918;51.280;7.950;2023-02-01T17:10:00;20.65;;;5.43;;
72053;SDS011;59918;51.280;7.950;2023-02-01T17:12:26;20.15;;;6.57;;
72053;SDS011;59918;51.280;7.950;2023-02-01T17:14:53;16.58;;;6.13;;
72053;SDS011;59918;51.280;7.950;2023-02-01T17:17:21;21.10;;;5.88;;
72053;SDS011;59918;51.280;7.950;2023-02-01T17:19:49;19.30;;;5.47;;
72053;SDS011;59918;51.280;7.950;2023-02-01T17:22:15;15.73;;;6.07;;
72053;SDS011;59918;51.280;7.950;2023-02-01T17:24:40;18.15;;;5.53;;
72053;SDS011;59918;51.280;7.950;2023-02-01T17:27:09;15.18;;;5.45;;
72053;SDS011;59918;51.280;7.950;2023-02-01T17:29:34;17.85;;;5.75;;
72053;SDS011;59918;51.280;7.950;2023-02-01T17:32:00;20.73;;;6.03;;
72053;SDS011;59918;51.280;7.950;2023-02-01T17:34:25;15.88;;;5.93;;
72053;SDS011;59918;51.280;7.950;2023-02-01T17:36:51;20.65;;;5.97;;
72053;SDS011;59918;51.280;7.950;2023-02-01T17:39:16;20.95;;;6.40;;
72053;SDS011;59918;51.280;7.950;2023-02-01T17:41:45;21.38;;;5.90;;
72053;SDS011;59918;51.280;7.950;2023-02-01T17:44:10;25.15;;;6.85;;
72053;SDS011;59918;51.280;7.950;2023-02-01T17:46:36;14.80;;;6.70;;
72053;SDS011;59918;51.280;7.950;2023-02-01T17:49:01;18.67;;;6.63;;
72053;SDS011;59918;51.280;7.950;2023-02-01T17:51:27;24.30;;;7.15;;
72053;SDS011;59918;51.280;7.950;2023-02-01T17:53:57;29.88;;;8.38;;
72053;SDS011;59918;51.280;7.950;2023-02-01T17:56:23;24.92;;;9.55;;
72053;SDS011;59918;51.280;7.950;2023-02-01T17:58:49;20.83;;;6.55;;
72053;SDS011;59918;51.280;7.950;2023-02-01T18:01:17;17.48;;;6.00;;
72053;SDS011;59918;51.280;7.950;2023-02-01T18:03:47;16.40;;;5.60;;
72053;SDS011;59918;51.280;7.950;2023-02-01T18:06:13;9.73;;;5.43;;
72053;SDS011;59918;51.280;7.950;2023-02-01T18:08:40;11.07;;;5.30;;
72053;SDS011;59918;51.280;7.950;2023-02-01T18:11:13;23.40;;;6.13;;
72053;SDS011;59918;51.280;7.950;2023-02-01T18:13:40;14.38;;;6.38;;
72053;SDS011;59918;51.280;7.950;2023-02-01T18:16:19;13.20;;;6.60;;
72053;SDS011;59918;51.280;7.950;2023-02-01T18:18:52;16.52;;;7.25;;
72053;SDS011;59918;51.280;7.950;2023-02-01T18:21:21;13.85;;;7.53;;
72053;SDS011;59918;51.280;7.950;2023-02-01T18:23:47;18.85;;;8.18;;
72053;SDS011;59918;51.280;7.950;2023-02-01T18:26:14;18.63;;;8.38;;
72053;SDS011;59918;51.280;7.950;2023-02-01T18:28:49;16.80;;;9.18;;